sensor_id;sensor_type;location;lat;lon;timestamp;P1;durP1;ratioP1;P2;durP2;ratioP2
33413;SDS011;60055;41.884;12.534;2023-07-13T00:02:14;12.15;;;3.95;;
33413;SDS011;60055;41.884;12.534;2023-07-13T00:04:40;12.52;;;4.50;;
33413;SDS011;60055;41.884;12.534;2023-07-13T00:07:06;8.95;;;3.90;;
33413;SDS011;60055;41.884;12.534;2023-07-13T00:09:32;9.52;;;4.10;;
33413;SDS011;60055;41.884;12.534;2023-07-13T00:11:58;12.20;;;4.20;;
33413;SDS011;60055;41.884;12.534;2023-07-13T00:14:24;12.73;;;4.50;;
33413;SDS011;60055;41.884;12.534;2023-07-13T00:16:50;14.25;;;4.65;;
33413;SDS011;60055;41.884;12.534;2023-07-13T00:19:16;11.25;;;4.68;;
33413;SDS011;60055;41.884;12.534;2023-07-13T00:21:42;9.70;;;3.90;;
33413;SDS011;60055;41.884;12.534;2023-07-13T00:24:08;9.38;;;4.20;;
33413;SDS011;60055;41.884;12.534;2023-07-13T00:26:39;9.40;;;3.83;;
33413;SDS011;60055;41.884;12.534;2023-07-13T00:29:05;8.30;;;3.72;;
33413;SDS011;60055;41.884;12.534;2023-07-13T00:31:34;11.52;;;3.35;;
33413;SDS011;60055;41.884;12.534;2023-07-13T00:34:00;14.80;;;3.90;;
33413;SDS011;60055;41.884;12.534;2023-07-13T00:36:25;11.18;;;3.60;;
33413;SDS011;60055;41.884;12.534;2023-07-13T00:38:51;11.85;;;3.28;;
33413;SDS011;60055;41.884;12.534;2023-07-13T00:41:17;14.95;;;3.67;;
33413;SDS011;60055;41.884;12.534;2023-07-13T00:43:43;6.60;;;2.72;;
33413;SDS011;60055;41.884;12.534;2023-07-13T00:46:16;7.07;;;2.83;;
33413;SDS011;60055;41.884;12.534;2023-07-13T00:48:45;5.00;;;2.72;;
33413;SDS011;60055;41.884;12.534;2023-07-13T00:51:12;7.20;;;2.92;;
33413;SDS011;60055;41.884;12.534;2023-07-13T00:53:41;7.32;;;3.03;;
33413;SDS011;60055;41.884;12.534;2023-07-13T00:56:07;9.50;;;2.75;;
33413;SDS011;60055;41.884;12.534;2023-07-13T00:58:33;5.38;;;2.47;;
33413;SDS011;60055;41.884;12.534;2023-07-13T01:01:00;9.23;;;2.80;;
33413;SDS011;60055;41.884;12.534;2023-07-13T01:03:26;5.28;;;2.70;;
33413;SDS011;60055;41.884;12.534;2023-07-13T01:05:51;7.00;;;3.00;;
33413;SDS011;60055;41.884;12.534;2023-07-13T01:08:19;8.05;;;2.83;;
33413;SDS011;60055;41.884;12.534;2023-07-13T01:10:55;13.73;;;3.08;;
33413;SDS011;60055;41.884;12.534;2023-07-13T01:13:23;7.72;;;3.08;;
33413;SDS011;60055;41.884;12.534;2023-07-13T01:15:49;5.80;;;2.85;;
33413;SDS011;60055;41.884;12.534;2023-07-13T01:18:20;8.27;;;2.85;;
33413;SDS011;60055;41.884;12.534;2023-07-13T01:20:52;7.87;;;3.00;;
33413;SDS011;60055;41.884;12.534;2023-07-13T01:23:28;5.97;;;2.85;;
33413;SDS011;60055;41.884;12.534;2023-07-13T01:25:56;8.00;;;3.00;;
33413;SDS011;60055;41.884;12.534;2023-07-13T01:28:22;7.65;;;2.95;;
33413;SDS011;60055;41.884;12.534;2023-07-13T01:30:52;5.82;;;2.88;;
33413;SDS011;60055;41.884;12.534;2023-07-13T01:33:18;10.00;;;3.13;;
33413;SDS011;60055;41.884;12.534;2023-07-13T01:35:46;6.57;;;3.00;;
33413;SDS011;60055;41.884;12.534;2023-07-13T01:38:13;6.72;;;2.63;;
33413;SDS011;60055;41.884;12.534;2023-07-13T01:40:40;4.97;;;2.50;;
33413;SDS011;60055;41.884;12.534;2023-07-13T01:43:07;6.30;;;2.75;;
33413;SDS011;60055;41.884;12.534;2023-07-13T01:45:33;7.32;;;2.83;;
33413;SDS011;60055;41.884;12.534;2023-07-13T01:47:58;6.93;;;2.85;;
33413;SDS011;60055;41.884;12.534;2023-07-13T01:50:24;9.93;;;3.00;;
33413;SDS011;60055;41.884;12.534;2023-07-13T01:52:50;6.68;;;3.08;;
33413;SDS011;60055;41.884;12.534;2023-07-13T01:55:16;5.50;;;2.85;;
33413;SDS011;60055;41.884;12.534;2023-07-13T01:57:42;6.35;;;2.75;;
33413;SDS011;60055;41.884;12.534;2023-07-13T02:00:08;3.55;;;2.50;;
33413;SDS011;60055;41.884;12.534;2023-07-13T02:02:36;4.78;;;2.55;;
33413;SDS011;60055;41.884;12.534;2023-07-13T02:05:01;7.55;;;3.03;;
33413;SDS011;60055;41.884;12.534;2023-07-13T02:07:27;7.80;;;2.90;;
33413;SDS011;60055;41.884;12.534;2023-07-13T02:09:52;7.03;;;2.83;;
33413;SDS011;60055;41.884;12.534;2023-07-13T02:12:18;7.93;;;2.95;;
33413;SDS011;60055;41.884;12.534;2023-07-13T02:14:44;8.15;;;3.05;;
33413;SDS011;60055;41.884;12.534;2023-07-13T02:17:10;11.35;;;3.10;;
33413;SDS011;60055;41.884;12.534;2023-07-13T02:19:36;6.55;;;2.85;;
33413;SDS011;60055;41.884;12.534;2023-07-13T02:22:01;5.82;;;3.17;;
33413;SDS011;60055;41.884;12.534;2023-07-13T02:24:27;9.25;;;2.92;;
33413;SDS011;60055;41.884;12.534;2023-07-13T02:26:52;6.60;;;2.95;;
33413;SDS011;60055;41.884;12.534;2023-07-13T02:29:18;6.30;;;3.05;;
33413;SDS011;60055;41.884;12.534;2023-07-13T02:31:43;8.43;;;3.38;;
33413;SDS011;60055;41.884;12.534;2023-07-13T02:34:09;6.70;;;2.95;;
33413;SDS011;60055;41.884;12.534;2023-07-13T02:36:34;7.40;;;3.13;;
33413;SDS011;60055;41.884;12.534;2023-07-13T02:39:00;7.25;;;2.97;;
33413;SDS011;60055;41.884;12.534;2023-07-13T02:41:28;6.20;;;3.00;;
33413;SDS011;60055;41.884;12.534;2023-07-13T02:43:53;6.25;;;2.90;;
33413;SDS011;60055;41.884;12.534;2023-07-13T02:46:19;10.38;;;3.60;;
33413;SDS011;60055;41.884;12.534;2023-07-13T02:48:44;8.10;;;3.65;;
33413;SDS011;60055;41.884;12.534;2023-07-13T02:51:10;9.70;;;3.22;;
33413;SDS011;60055;41.884;12.534;2023-07-13T02:53:36;10.68;;;3.50;;
33413;SDS011;60055;41.884;12.534;2023-07-13T02:56:02;10.05;;;3.47;;
33413;SDS011;60055;41.884;12.534;2023-07-13T02:58:29;9.38;;;3.60;;
33413;SDS011;60055;41.884;12.534;2023-07-13T03:00:55;10.23;;;3.90;;
33413;SDS011;60055;41.884;12.534;2023-07-13T03:03:21;13.40;;;3.85;;
33413;SDS011;60055;41.884;12.534;2023-07-13T03:05:47;8.85;;;3.88;;
33413;SDS011;60055;41.884;12.534;2023-07-13T03:08:15;11.88;;;4.20;;
33413;SDS011;60055;41.884;12.534;2023-07-13T03:10:40;11.88;;;3.72;;
33413;SDS011;60055;41.884;12.534;2023-07-13T03:13:06;10.77;;;3.78;;
33413;SDS011;60055;41.884;12.534;2023-07-13T03:15:31;11.20;;;3.78;;
33413;SDS011;60055;41.884;12.534;2023-07-13T03:17:57;11.00;;;4.13;;
33413;SDS011;60055;41.884;12.534;2023-07-13T03:20:22;12.27;;;3.72;;
33413;SDS011;60055;41.884;12.534;2023-07-13T03:22:48;10.13;;;3.88;;
33413;SDS011;60055;41.884;12.534;2023-07-13T03:25:13;9.10;;;3.30;;
33413;SDS011;60055;41.884;12.534;2023-07-13T03:27:39;8.95;;;3.72;;
33413;SDS011;60055;41.884;12.534;2023-07-13T03:30:05;9.98;;;3.55;;
33413;SDS011;60055;41.884;12.534;2023-07-13T03:32:31;13.40;;;4.50;;
33413;SDS011;60055;41.884;12.534;2023-07-13T03:34:57;18.48;;;4.55;;
33413;SDS011;60055;41.884;12.534;2023-07-13T03:37:23;9.77;;;3.92;;
33413;SDS011;60055;41.884;12.534;2023-07-13T03:39:48;8.55;;;4.00;;
33413;SDS011;60055;41.884;12.534;2023-07-13T03:42:14;9.65;;;3.92;;
33413;SDS011;60055;41.884;12.534;2023-07-13T03:44:40;8.35;;;3.67;;
33413;SDS011;60055;41.884;12.534;2023-07-13T03:47:06;12.35;;;4.22;;
33413;SDS011;60055;41.884;12.534;2023-07-13T03:49:34;13.50;;;4.03;;
33413;SDS011;60055;41.884;12.534;2023-07-13T03:51:59;11.63;;;3.90;;
33413;SDS011;60055;41.884;12.534;2023-07-13T03:54:25;8.10;;;3.80;;
33413;SDS011;60055;41.884;12.534;2023-07-13T03:56:50;8.65;;;3.90;;
33413;SDS011;60055;41.884;12.534;2023-07-13T03:59:16;9.55;;;3.80;;
33413;SDS011;60055;41.884;12.534;2023-07-13T04:01:43;10.45;;;4.07;;
33413;SDS011;60055;41.884;12.534;2023-07-13T04:04:09;11.60;;;3.97;;
33413;SDS011;60055;41.884;12.534;2023-07-13T04:06:34;12.23;;;4.45;;
33413;SDS011;60055;41.884;12.534;2023-07-13T04:09:00;10.60;;;3.60;;
33413;SDS011;60055;41.884;12.534;2023-07-13T04:11:29;9.27;;;4.10;;
33413;SDS011;60055;41.884;12.534;2023-07-13T04:13:56;12.43;;;3.58;;
33413;SDS011;60055;41.884;12.534;2023-07-13T04:16:22;8.25;;;3.80;;
33413;SDS011;60055;41.884;12.534;2023-07-13T04:18:48;9.07;;;4.25;;
33413;SDS011;60055;41.884;12.534;2023-07-13T04:21:14;7.45;;;3.83;;
33413;SDS011;60055;41.884;12.534;2023-07-13T04:23:40;12.10;;;4.07;;
33413;SDS011;60055;41.884;12.534;2023-07-13T04:26:06;9.20;;;3.95;;
33413;SDS011;60055;41.884;12.534;2023-07-13T04:28:32;8.95;;;4.15;;
33413;SDS011;60055;41.884;12.534;2023-07-13T04:30:57;9.77;;;4.38;;
33413;SDS011;60055;41.884;12.534;2023-07-13T04:33:23;13.32;;;4.95;;
33413;SDS011;60055;41.884;12.534;2023-07-13T04:35:51;14.93;;;4.38;;
33413;SDS011;60055;41.884;12.534;2023-07-13T04:38:25;12.50;;;4.45;;
33413;SDS011;60055;41.884;12.534;2023-07-13T04:40:56;9.40;;;4.65;;
33413;SDS011;60055;41.884;12.534;2023-07-13T04:43:24;8.68;;;4.13;;
33413;SDS011;60055;41.884;12.534;2023-07-13T04:45:50;12.55;;;4.05;;
33413;SDS011;60055;41.884;12.534;2023-07-13T04:48:17;10.35;;;3.90;;
33413;SDS011;60055;41.884;12.534;2023-07-13T04:50:42;13.73;;;6.70;;
33413;SDS011;60055;41.884;12.534;2023-07-13T04:53:08;13.27;;;6.03;;
33413;SDS011;60055;41.884;12.534;2023-07-13T04:55:35;15.88;;;6.82;;
33413;SDS011;60055;41.884;12.534;2023-07-13T04:58:01;9.82;;;4.40;;
33413;SDS011;60055;41.884;12.534;2023-07-13T05:00:27;13.80;;;4.50;;
33413;SDS011;60055;41.884;12.534;2023-07-13T05:02:54;13.20;;;4.43;;
33413;SDS011;60055;41.884;12.534;2023-07-13T05:05:22;11.82;;;4.22;;
33413;SDS011;60055;41.884;12.534;2023-07-13T05:07:48;13.73;;;4.22;;
33413;SDS011;60055;41.884;12.534;2023-07-13T05:10:13;11.68;;;4.25;;
33413;SDS011;60055;41.884;12.534;2023-07-13T05:12:39;9.43;;;3.63;;
33413;SDS011;60055;41.884;12.534;2023-07-13T05:15:05;10.80;;;4.15;;
33413;SDS011;60055;41.884;12.534;2023-07-13T05:17:31;10.93;;;3.60;;
33413;SDS011;60055;41.884;12.534;2023-07-13T05:19:56;8.98;;;4.40;;
33413;SDS011;60055;41.884;12.534;2023-07-13T05:22:22;8.98;;;3.70;;
33413;SDS011;60055;41.884;12.534;2023-07-13T05:24:47;8.35;;;4.00;;
33413;SDS011;60055;41.884;12.534;2023-07-13T05:27:13;9.77;;;4.10;;
33413;SDS011;60055;41.884;12.534;2023-07-13T05:29:38;17.60;;;6.50;;
33413;SDS011;60055;41.884;12.534;2023-07-13T05:32:04;9.65;;;4.97;;
33413;SDS011;60055;41.884;12.534;2023-07-13T05:34:30;13.48;;;5.43;;
33413;SDS011;60055;41.884;12.534;2023-07-13T05:36:55;11.40;;;4.45;;
33413;SDS011;60055;41.884;12.534;2023-07-13T05:39:21;12.77;;;4.00;;
33413;SDS011;60055;41.884;12.534;2023-07-13T05:41:46;9.20;;;3.63;;
33413;SDS011;60055;41.884;12.534;2023-07-13T05:44:11;13.00;;;3.90;;
33413;SDS011;60055;41.884;12.534;2023-07-13T05:46:37;15.15;;;3.67;;
33413;SDS011;60055;41.884;12.534;2023-07-13T05:49:02;10.55;;;3.65;;
33413;SDS011;60055;41.884;12.534;2023-07-13T05:51:28;9.73;;;3.97;;
33413;SDS011;60055;41.884;12.534;2023-07-13T05:53:54;14.80;;;4.15;;
33413;SDS011;60055;41.884;12.534;2023-07-13T05:56:19;11.38;;;3.70;;
33413;SDS011;60055;41.884;12.534;2023-07-13T05:58:45;9.70;;;3.45;;
33413;SDS011;60055;41.884;12.534;2023-07-13T06:01:11;11.30;;;3.53;;
33413;SDS011;60055;41.884;12.534;2023-07-13T06:03:38;9.85;;;3.78;;
33413;SDS011;60055;41.884;12.534;2023-07-13T06:06:04;11.18;;;3.45;;
33413;SDS011;60055;41.884;12.534;2023-07-13T06:08:30;10.02;;;3.17;;
33413;SDS011;60055;41.884;12.534;2023-07-13T06:11:16;12.93;;;3.72;;
33413;SDS011;60055;41.884;12.534;2023-07-13T06:13:43;7.45;;;3.00;;
33413;SDS011;60055;41.884;12.534;2023-07-13T06:16:09;7.22;;;2.88;;
33413;SDS011;60055;41.884;12.534;2023-07-13T06:18:35;6.30;;;2.80;;
33413;SDS011;60055;41.884;12.534;2023-07-13T06:21:06;14.80;;;2.88;;
33413;SDS011;60055;41.884;12.534;2023-07-13T06:23:32;10.85;;;4.05;;
33413;SDS011;60055;41.884;12.534;2023-07-13T06:25:57;11.93;;;3.38;;
33413;SDS011;60055;41.884;12.534;2023-07-13T06:28:23;12.80;;;3.28;;
33413;SDS011;60055;41.884;12.534;2023-07-13T06:30:48;8.07;;;3.00;;
33413;SDS011;60055;41.884;12.534;2023-07-13T06:33:14;8.68;;;3.22;;
33413;SDS011;60055;41.884;12.534;2023-07-13T06:35:39;9.82;;;2.95;;
33413;SDS011;60055;41.884;12.534;2023-07-13T06:38:04;13.93;;;3.28;;
33413;SDS011;60055;41.884;12.534;2023-07-13T06:40:30;9.00;;;3.00;;
33413;SDS011;60055;41.884;12.534;2023-07-13T06:42:56;11.43;;;3.10;;
33413;SDS011;60055;41.884;12.534;2023-07-13T06:45:22;13.48;;;3.35;;
33413;SDS011;60055;41.884;12.534;2023-07-13T06:47:47;11.98;;;3.30;;
33413;SDS011;60055;41.884;12.534;2023-07-13T06:50:13;10.50;;;3.15;;
33413;SDS011;60055;41.884;12.534;2023-07-13T06:52:38;10.68;;;3.30;;
33413;SDS011;60055;41.884;12.534;2023-07-13T06:55:04;11.07;;;2.78;;
33413;SDS011;60055;41.884;12.534;2023-07-13T06:57:30;13.10;;;3.13;;
33413;SDS011;60055;41.884;12.534;2023-07-13T06:59:55;11.55;;;2.78;;
33413;SDS011;60055;41.884;12.534;2023-07-13T07:02:20;9.63;;;2.90;;
33413;SDS011;60055;41.884;12.534;2023-07-13T07:04:46;7.38;;;3.08;;
33413;SDS011;60055;41.884;12.534;2023-07-13T07:07:11;8.45;;;3.00;;
33413;SDS011;60055;41.884;12.534;2023-07-13T07:09:37;10.77;;;3.33;;
33413;SDS011;60055;41.884;12.534;2023-07-13T07:12:02;8.00;;;3.25;;
33413;SDS011;60055;41.884;12.534;2023-07-13T07:14:28;10.23;;;2.72;;
33413;SDS011;60055;41.884;12.534;2023-07-13T07:16:54;14.85;;;3.20;;
33413;SDS011;60055;41.884;12.534;2023-07-13T07:19:19;13.90;;;3.13;;
33413;SDS011;60055;41.884;12.534;2023-07-13T07:21:45;8.73;;;2.90;;
33413;SDS011;60055;41.884;12.534;2023-07-13T07:24:10;8.90;;;3.03;;
33413;SDS011;60055;41.884;12.534;2023-07-13T07:26:36;8.63;;;3.17;;
33413;SDS011;60055;41.884;12.534;2023-07-13T07:29:01;9.85;;;3.45;;
33413;SDS011;60055;41.884;12.534;2023-07-13T07:31:26;12.15;;;3.22;;
33413;SDS011;60055;41.884;12.534;2023-07-13T07:33:52;14.43;;;3.60;;
33413;SDS011;60055;41.884;12.534;2023-07-13T07:36:17;8.52;;;3.25;;
33413;SDS011;60055;41.884;12.534;2023-07-13T07:38:43;9.07;;;2.85;;
33413;SDS011;60055;41.884;12.534;2023-07-13T07:41:09;9.32;;;2.95;;
33413;SDS011;60055;41.884;12.534;2023-07-13T07:43:35;12.55;;;3.40;;
33413;SDS011;60055;41.884;12.534;2023-07-13T07:46:00;16.38;;;3.40;;
33413;SDS011;60055;41.884;12.534;2023-07-13T07:48:26;10.30;;;2.97;;
33413;SDS011;60055;41.884;12.534;2023-07-13T07:50:51;9.10;;;3.55;;
33413;SDS011;60055;41.884;12.534;2023-07-13T07:53:17;13.18;;;3.08;;
33413;SDS011;60055;41.884;12.534;2023-07-13T07:55:42;9.85;;;3.10;;
33413;SDS011;60055;41.884;12.534;2023-07-13T07:58:08;11.98;;;3.03;;
33413;SDS011;60055;41.884;12.534;2023-07-13T08:00:34;7.47;;;3.20;;
33413;SDS011;60055;41.884;12.534;2023-07-13T08:03:00;9.82;;;2.80;;
33413;SDS011;60055;41.884;12.534;2023-07-13T08:05:26;11.13;;;3.13;;
33413;SDS011;60055;41.884;12.534;2023-07-13T08:07:52;8.80;;;3.25;;
33413;SDS011;60055;41.884;12.534;2023-07-13T08:10:17;10.23;;;3.20;;
33413;SDS011;60055;41.884;12.534;2023-07-13T08:12:43;6.93;;;3.17;;
33413;SDS011;60055;41.884;12.534;2023-07-13T08:15:12;10.95;;;3.00;;
33413;SDS011;60055;41.884;12.534;2023-07-13T08:17:40;10.27;;;3.55;;
33413;SDS011;60055;41.884;12.534;2023-07-13T08:20:07;12.77;;;3.97;;
33413;SDS011;60055;41.884;12.534;2023-07-13T08:22:34;11.18;;;3.35;;
33413;SDS011;60055;41.884;12.534;2023-07-13T08:25:00;9.20;;;3.15;;
33413;SDS011;60055;41.884;12.534;2023-07-13T08:27:26;13.95;;;3.33;;
33413;SDS011;60055;41.884;12.534;2023-07-13T08:29:53;5.68;;;3.25;;
33413;SDS011;60055;41.884;12.534;2023-07-13T08:32:20;11.40;;;3.72;;
33413;SDS011;60055;41.884;12.534;2023-07-13T08:34:46;6.18;;;3.10;;
33413;SDS011;60055;41.884;12.534;2023-07-13T08:37:12;9.23;;;4.40;;
33413;SDS011;60055;41.884;12.534;2023-07-13T08:39:38;10.77;;;3.60;;
33413;SDS011;60055;41.884;12.534;2023-07-13T08:42:09;8.85;;;3.08;;
33413;SDS011;60055;41.884;12.534;2023-07-13T08:44:52;6.57;;;3.35;;
33413;SDS011;60055;41.884;12.534;2023-07-13T08:47:31;11.27;;;3.50;;
33413;SDS011;60055;41.884;12.534;2023-07-13T08:50:00;10.60;;;3.63;;
33413;SDS011;60055;41.884;12.534;2023-07-13T08:54:55;10.48;;;3.63;;
33413;SDS011;60055;41.884;12.534;2023-07-13T08:57:32;7.75;;;3.65;;
33413;SDS011;60055;41.884;12.534;2023-07-13T08:59:59;10.65;;;3.40;;
33413;SDS011;60055;41.884;12.534;2023-07-13T09:05:31;9.55;;;3.30;;
33413;SDS011;60055;41.884;12.534;2023-07-13T09:10:42;8.55;;;3.55;;
33413;SDS011;60055;41.884;12.534;2023-07-13T09:16:00;11.38;;;3.65;;
33413;SDS011;60055;41.884;12.534;2023-07-13T09:18:30;12.65;;;3.30;;
33413;SDS011;60055;41.884;12.534;2023-07-13T09:23:39;15.77;;;3.65;;
33413;SDS011;60055;41.884;12.534;2023-07-13T09:28:46;12.80;;;3.60;;
33413;SDS011;60055;41.884;12.534;2023-07-13T09:31:19;10.63;;;3.35;;
33413;SDS011;60055;41.884;12.534;2023-07-13T09:33:49;13.43;;;3.65;;
33413;SDS011;60055;41.884;12.534;2023-07-13T09:38:41;13.75;;;3.38;;
33413;SDS011;60055;41.884;12.534;2023-07-13T09:41:21;6.05;;;2.95;;
33413;SDS011;60055;41.884;12.534;2023-07-13T09:44:13;14.90;;;3.70;;
33413;SDS011;60055;41.884;12.534;2023-07-13T09:46:44;11.73;;;3.28;;
33413;SDS011;60055;41.884;12.534;2023-07-13T09:49:17;10.80;;;3.30;;
33413;SDS011;60055;41.884;12.534;2023-07-13T09:51:44;10.73;;;3.50;;
33413;SDS011;60055;41.884;12.534;2023-07-13T09:54:23;9.50;;;3.30;;
33413;SDS011;60055;41.884;12.534;2023-07-13T09:56:57;7.53;;;3.35;;
33413;SDS011;60055;41.884;12.534;2023-07-13T09:59:26;10.32;;;2.88;;
33413;SDS011;60055;41.884;12.534;2023-07-13T10:01:55;9.88;;;2.92;;
33413;SDS011;60055;41.884;12.534;2023-07-13T10:04:26;7.40;;;3.10;;
33413;SDS011;60055;41.884;12.534;2023-07-13T10:07:04;11.27;;;3.80;;
33413;SDS011;60055;41.884;12.534;2023-07-13T10:09:32;10.38;;;3.80;;
33413;SDS011;60055;41.884;12.534;2023-07-13T10:11:58;8.25;;;3.42;;
33413;SDS011;60055;41.884;12.534;2023-07-13T10:14:23;11.57;;;3.50;;
33413;SDS011;60055;41.884;12.534;2023-07-13T10:16:51;12.73;;;3.42;;
33413;SDS011;60055;41.884;12.534;2023-07-13T10:19:24;10.30;;;3.38;;
33413;SDS011;60055;41.884;12.534;2023-07-13T10:29:25;7.28;;;3.63;;
33413;SDS011;60055;41.884;12.534;2023-07-13T10:31:54;10.82;;;3.75;;
33413;SDS011;60055;41.884;12.534;2023-07-13T10:34:22;10.82;;;3.55;;
33413;SDS011;60055;41.884;12.534;2023-07-13T10:36:48;11.07;;;3.70;;
33413;SDS011;60055;41.884;12.534;2023-07-13T10:39:21;12.88;;;3.50;;
33413;SDS011;60055;41.884;12.534;2023-07-13T10:41:52;10.55;;;4.10;;
33413;SDS011;60055;41.884;12.534;2023-07-13T10:44:38;13.48;;;3.88;;
33413;SDS011;60055;41.884;12.534;2023-07-13T10:47:06;9.95;;;3.53;;
33413;SDS011;60055;41.884;12.534;2023-07-13T10:49:38;9.90;;;3.45;;
33413;SDS011;60055;41.884;12.534;2023-07-13T10:52:06;13.93;;;3.40;;
33413;SDS011;60055;41.884;12.534;2023-07-13T10:54:51;10.65;;;3.40;;
33413;SDS011;60055;41.884;12.534;2023-07-13T10:57:18;14.10;;;3.75;;
33413;SDS011;60055;41.884;12.534;2023-07-13T10:59:49;14.38;;;3.88;;
33413;SDS011;60055;41.884;12.534;2023-07-13T11:02:40;10.77;;;4.05;;
33413;SDS011;60055;41.884;12.534;2023-07-13T11:05:14;11.32;;;4.00;;
33413;SDS011;60055;41.884;12.534;2023-07-13T11:07:55;12.38;;;6.60;;
33413;SDS011;60055;41.884;12.534;2023-07-13T11:18:49;11.02;;;3.78;;
33413;SDS011;60055;41.884;12.534;2023-07-13T11:21:17;15.05;;;3.40;;
33413;SDS011;60055;41.884;12.534;2023-07-13T11:23:54;15.23;;;4.07;;
33413;SDS011;60055;41.884;12.534;2023-07-13T11:31:56;14.48;;;3.95;;
33413;SDS011;60055;41.884;12.534;2023-07-13T11:34:37;11.90;;;3.30;;
33413;SDS011;60055;41.884;12.534;2023-07-13T11:37:08;8.80;;;3.67;;
33413;SDS011;60055;41.884;12.534;2023-07-13T11:39:39;9.40;;;3.63;;
33413;SDS011;60055;41.884;12.534;2023-07-13T11:42:12;12.10;;;3.60;;
33413;SDS011;60055;41.884;12.534;2023-07-13T11:44:43;11.02;;;3.92;;
33413;SDS011;60055;41.884;12.534;2023-07-13T11:47:14;12.90;;;4.05;;
33413;SDS011;60055;41.884;12.534;2023-07-13T11:49:44;11.85;;;3.90;;
33413;SDS011;60055;41.884;12.534;2023-07-13T11:52:16;12.50;;;3.63;;
33413;SDS011;60055;41.884;12.534;2023-07-13T11:54:50;14.48;;;3.83;;
33413;SDS011;60055;41.884;12.534;2023-07-13T11:59:50;12.18;;;3.90;;
33413;SDS011;60055;41.884;12.534;2023-07-13T12:02:28;12.02;;;3.80;;
33413;SDS011;60055;41.884;12.534;2023-07-13T12:04:55;11.05;;;3.80;;
33413;SDS011;60055;41.884;12.534;2023-07-13T12:07:22;6.63;;;3.45;;
33413;SDS011;60055;41.884;12.534;2023-07-13T12:09:48;10.60;;;3.83;;
33413;SDS011;60055;41.884;12.534;2023-07-13T12:12:19;10.90;;;3.53;;
33413;SDS011;60055;41.884;12.534;2023-07-13T12:14:46;9.80;;;3.20;;
33413;SDS011;60055;41.884;12.534;2023-07-13T12:17:20;11.88;;;4.13;;
33413;SDS011;60055;41.884;12.534;2023-07-13T12:19:48;12.73;;;3.80;;
33413;SDS011;60055;41.884;12.534;2023-07-13T12:22:15;12.07;;;3.58;;
33413;SDS011;60055;41.884;12.534;2023-07-13T12:24:43;12.23;;;3.60;;
33413;SDS011;60055;41.884;12.534;2023-07-13T12:29:59;9.52;;;3.60;;
33413;SDS011;60055;41.884;12.534;2023-07-13T12:32:30;6.72;;;3.10;;
33413;SDS011;60055;41.884;12.534;2023-07-13T12:34:57;13.38;;;3.67;;
33413;SDS011;60055;41.884;12.534;2023-07-13T12:37:33;11.07;;;3.58;;
33413;SDS011;60055;41.884;12.534;2023-07-13T12:40:00;9.95;;;3.40;;
33413;SDS011;60055;41.884;12.534;2023-07-13T12:42:28;9.50;;;3.92;;
33413;SDS011;60055;41.884;12.534;2023-07-13T12:47:42;10.60;;;3.65;;
33413;SDS011;60055;41.884;12.534;2023-07-13T12:50:17;9.05;;;3.88;;
33413;SDS011;60055;41.884;12.534;2023-07-13T12:52:50;8.43;;;3.33;;
33413;SDS011;60055;41.884;12.534;2023-07-13T12:55:18;10.05;;;3.60;;
33413;SDS011;60055;41.884;12.534;2023-07-13T12:58:06;15.48;;;3.85;;
33413;SDS011;60055;41.884;12.534;2023-07-13T13:00:31;12.93;;;3.78;;
33413;SDS011;60055;41.884;12.534;2023-07-13T13:03:16;14.00;;;4.18;;
33413;SDS011;60055;41.884;12.534;2023-07-13T13:05:47;14.98;;;3.90;;
33413;SDS011;60055;41.884;12.534;2023-07-13T13:08:12;10.35;;;3.67;;
33413;SDS011;60055;41.884;12.534;2023-07-13T13:10:38;11.30;;;3.83;;
33413;SDS011;60055;41.884;12.534;2023-07-13T13:13:04;10.35;;;4.13;;
33413;SDS011;60055;41.884;12.534;2023-07-13T13:15:29;12.30;;;4.53;;
33413;SDS011;60055;41.884;12.534;2023-07-13T13:17:55;13.02;;;4.13;;
33413;SDS011;60055;41.884;12.534;2023-07-13T13:20:21;13.25;;;3.92;;
33413;SDS011;60055;41.884;12.534;2023-07-13T13:22:48;7.53;;;4.15;;
33413;SDS011;60055;41.884;12.534;2023-07-13T13:25:14;8.30;;;3.47;;
33413;SDS011;60055;41.884;12.534;2023-07-13T13:27:40;9.40;;;4.03;;
33413;SDS011;60055;41.884;12.534;2023-07-13T13:30:13;12.65;;;3.72;;
33413;SDS011;60055;41.884;12.534;2023-07-13T13:32:41;11.50;;;3.75;;
33413;SDS011;60055;41.884;12.534;2023-07-13T13:35:19;10.05;;;3.95;;
33413;SDS011;60055;41.884;12.534;2023-07-13T13:37:45;13.60;;;4.30;;
33413;SDS011;60055;41.884;12.534;2023-07-13T13:40:16;13.57;;;4.18;;
33413;SDS011;60055;41.884;12.534;2023-07-13T13:42:43;13.88;;;4.30;;
33413;SDS011;60055;41.884;12.534;2023-07-13T13:45:09;9.55;;;4.15;;
33413;SDS011;60055;41.884;12.534;2023-07-13T13:47:37;12.55;;;3.88;;
33413;SDS011;60055;41.884;12.534;2023-07-13T13:50:25;10.55;;;3.80;;
33413;SDS011;60055;41.884;12.534;2023-07-13T13:52:49;11.98;;;3.80;;
33413;SDS011;60055;41.884;12.534;2023-07-13T13:55:18;11.15;;;4.32;;
33413;SDS011;60055;41.884;12.534;2023-07-13T13:57:46;11.50;;;3.90;;
33413;SDS011;60055;41.884;12.534;2023-07-13T14:00:12;12.48;;;3.97;;
33413;SDS011;60055;41.884;12.534;2023-07-13T14:02:45;11.32;;;3.90;;
33413;SDS011;60055;41.884;12.534;2023-07-13T14:05:13;9.38;;;4.05;;
33413;SDS011;60055;41.884;12.534;2023-07-13T14:07:41;15.85;;;4.18;;
33413;SDS011;60055;41.884;12.534;2023-07-13T14:10:16;11.05;;;3.65;;
33413;SDS011;60055;41.884;12.534;2023-07-13T14:12:44;7.93;;;3.55;;
33413;SDS011;60055;41.884;12.534;2023-07-13T14:15:17;9.35;;;3.60;;
33413;SDS011;60055;41.884;12.534;2023-07-13T14:17:45;10.07;;;4.07;;
33413;SDS011;60055;41.884;12.534;2023-07-13T14:20:14;11.40;;;4.18;;
33413;SDS011;60055;41.884;12.534;2023-07-13T14:22:40;13.55;;;4.03;;
33413;SDS011;60055;41.884;12.534;2023-07-13T14:25:10;11.93;;;4.13;;
33413;SDS011;60055;41.884;12.534;2023-07-13T14:27:40;12.02;;;4.00;;
33413;SDS011;60055;41.884;12.534;2023-07-13T14:30:12;15.57;;;3.83;;
33413;SDS011;60055;41.884;12.534;2023-07-13T14:32:39;10.25;;;3.95;;
33413;SDS011;60055;41.884;12.534;2023-07-13T14:35:05;11.20;;;3.78;;
33413;SDS011;60055;41.884;12.534;2023-07-13T14:37:31;18.50;;;4.07;;
33413;SDS011;60055;41.884;12.534;2023-07-13T14:39:56;21.40;;;4.97;;
33413;SDS011;60055;41.884;12.534;2023-07-13T14:42:21;17.35;;;4.20;;
33413;SDS011;60055;41.884;12.534;2023-07-13T14:44:47;15.43;;;4.20;;
33413;SDS011;60055;41.884;12.534;2023-07-13T14:47:12;10.48;;;3.70;;
33413;SDS011;60055;41.884;12.534;2023-07-13T14:49:43;13.15;;;3.88;;
33413;SDS011;60055;41.884;12.534;2023-07-13T14:52:16;10.52;;;4.13;;
33413;SDS011;60055;41.884;12.534;2023-07-13T14:54:43;8.88;;;3.80;;
33413;SDS011;60055;41.884;12.534;2023-07-13T14:57:11;13.18;;;3.80;;
33413;SDS011;60055;41.884;12.534;2023-07-13T14:59:38;10.15;;;4.00;;
33413;SDS011;60055;41.884;12.534;2023-07-13T15:02:12;9.88;;;3.70;;
33413;SDS011;60055;41.884;12.534;2023-07-13T15:04:42;9.20;;;4.00;;
33413;SDS011;60055;41.884;12.534;2023-07-13T15:07:11;13.55;;;4.20;;
33413;SDS011;60055;41.884;12.534;2023-07-13T15:09:40;9.73;;;3.88;;
33413;SDS011;60055;41.884;12.534;2023-07-13T15:12:06;14.82;;;4.13;;
33413;SDS011;60055;41.884;12.534;2023-07-13T15:14:32;14.02;;;4.07;;
33413;SDS011;60055;41.884;12.534;2023-07-13T15:16:58;12.15;;;4.22;;
33413;SDS011;60055;41.884;12.534;2023-07-13T15:19:23;10.93;;;4.05;;